sensor_id;sensor_type;location;lat;lon;timestamp;temperature;humidity
3300;DHT22;1662;49.310;8.134;2022-10-12T00:01:30;12.20;99.90
3300;DHT22;1662;49.310;8.134;2022-10-12T00:03:56;12.20;99.90
3300;DHT22;1662;49.310;8.134;2022-10-12T00:06:23;12.20;99.90
3300;DHT22;1662;49.310;8.134;2022-10-12T00:08:51;12.20;99.90
3300;DHT22;1662;49.310;8.134;2022-10-12T00:11:20;12.10;99.90
3300;DHT22;1662;49.310;8.134;2022-10-12T00:13:46;12.00;99.90
3300;DHT22;1662;49.310;8.134;2022-10-12T00:16:13;12.00;99.90
3300;DHT22;1662;49.310;8.134;2022-10-12T00:18:39;12.00;99.90
3300;DHT22;1662;49.310;8.134;2022-10-12T00:23:31;12.00;99.90
3300;DHT22;1662;49.310;8.134;2022-10-12T00:26:02;12.00;99.90
3300;DHT22;1662;49.310;8.134;2022-10-12T00:28:34;12.00;99.90
3300;DHT22;1662;49.310;8.134;2022-10-12T00:31:01;12.00;99.90
3300;DHT22;1662;49.310;8.134;2022-10-12T00:33:29;12.00;99.90
3300;DHT22;1662;49.310;8.134;2022-10-12T00:35:54;12.00;99.90
3300;DHT22;1662;49.310;8.134;2022-10-12T00:38:21;12.00;99.90
3300;DHT22;1662;49.310;8.134;2022-10-12T00:40:47;12.00;99.90
3300;DHT22;1662;49.310;8.134;2022-10-12T00:43:33;12.00;99.90
3300;DHT22;1662;49.310;8.134;2022-10-12T00:46:06;12.00;99.90
3300;DHT22;1662;49.310;8.134;2022-10-12T00:48:36;12.00;99.90
3300;DHT22;1662;49.310;8.134;2022-10-12T00:51:02;12.00;99.90
3300;DHT22;1662;49.310;8.134;2022-10-12T00:53:33;12.00;99.90
3300;DHT22;1662;49.310;8.134;2022-10-12T00:56:02;11.90;99.90
3300;DHT22;1662;49.310;8.134;2022-10-12T00:58:32;11.90;99.90
3300;DHT22;1662;49.310;8.134;2022-10-12T01:01:03;11.90;99.90
3300;DHT22;1662;49.310;8.134;2022-10-12T01:03:30;11.90;99.90
3300;DHT22;1662;49.310;8.134;2022-10-12T01:05:56;11.90;99.90
3300;DHT22;1662;49.310;8.134;2022-10-12T01:08:22;11.80;99.90
3300;DHT22;1662;49.310;8.134;2022-10-12T01:10:48;11.80;99.90
3300;DHT22;1662;49.310;8.134;2022-10-12T01:13:13;11.80;99.90
3300;DHT22;1662;49.310;8.134;2022-10-12T01:16:06;11.80;99.90
3300;DHT22;1662;49.310;8.134;2022-10-12T01:18:53;11.90;99.90
3300;DHT22;1662;49.310;8.134;2022-10-12T01:21:22;11.80;99.90
3300;DHT22;1662;49.310;8.134;2022-10-12T01:24:05;11.70;99.90
3300;DHT22;1662;49.310;8.134;2022-10-12T01:31:49;11.60;99.90
3300;DHT22;1662;49.310;8.134;2022-10-12T01:34:33;11.60;99.90
3300;DHT22;1662;49.310;8.134;2022-10-12T01:39:53;11.60;99.90
3300;DHT22;1662;49.310;8.134;2022-10-12T01:42:27;11.60;99.90
3300;DHT22;1662;49.310;8.134;2022-10-12T01:45:01;11.60;99.90
3300;DHT22;1662;49.310;8.134;2022-10-12T01:47:27;11.60;99.90
3300;DHT22;1662;49.310;8.134;2022-10-12T01:49:56;11.60;99.90
3300;DHT22;1662;49.310;8.134;2022-10-12T01:55:32;11.60;99.90
3300;DHT22;1662;49.310;8.134;2022-10-12T02:00:39;11.70;99.90
3300;DHT22;1662;49.310;8.134;2022-10-12T02:03:18;11.70;99.90
3300;DHT22;1662;49.310;8.134;2022-10-12T02:05:59;11.70;99.90
3300;DHT22;1662;49.310;8.134;2022-10-12T02:11:22;11.60;99.90
3300;DHT22;1662;49.310;8.134;2022-10-12T02:14:05;11.60;99.90
3300;DHT22;1662;49.310;8.134;2022-10-12T02:16:36;11.60;99.90
3300;DHT22;1662;49.310;8.134;2022-10-12T02:19:04;11.60;99.90
3300;DHT22;1662;49.310;8.134;2022-10-12T02:21:34;11.60;99.90
3300;DHT22;1662;49.310;8.134;2022-10-12T02:24:05;11.60;99.90
3300;DHT22;1662;49.310;8.134;2022-10-12T02:26:35;11.60;99.90
3300;DHT22;1662;49.310;8.134;2022-10-12T02:29:05;11.60;99.90
3300;DHT22;1662;49.310;8.134;2022-10-12T02:34:23;11.60;99.90
3300;DHT22;1662;49.310;8.134;2022-10-12T02:36:56;11.50;99.90
3300;DHT22;1662;49.310;8.134;2022-10-12T02:39:36;11.60;99.90
3300;DHT22;1662;49.310;8.134;2022-10-12T02:42:07;11.60;99.90
3300;DHT22;1662;49.310;8.134;2022-10-12T02:44:37;11.60;99.90
3300;DHT22;1662;49.310;8.134;2022-10-12T02:47:06;11.60;99.90
3300;DHT22;1662;49.310;8.134;2022-10-12T02:49:34;11.60;99.90
3300;DHT22;1662;49.310;8.134;2022-10-12T02:52:02;11.60;99.90
3300;DHT22;1662;49.310;8.134;2022-10-12T02:54:30;11.60;99.90
3300;DHT22;1662;49.310;8.134;2022-10-12T02:56:56;11.60;99.90
3300;DHT22;1662;49.310;8.134;2022-10-12T02:59:21;11.60;99.90
3300;DHT22;1662;49.310;8.134;2022-10-12T03:01:47;11.60;99.90
3300;DHT22;1662;49.310;8.134;2022-10-12T03:04:13;11.60;99.90
3300;DHT22;1662;49.310;8.134;2022-10-12T03:06:38;11.50;99.90
3300;DHT22;1662;49.310;8.134;2022-10-12T03:09:06;11.50;99.90
3300;DHT22;1662;49.310;8.134;2022-10-12T03:11:32;11.50;99.90
3300;DHT22;1662;49.310;8.134;2022-10-12T03:13:58;11.50;99.90
3300;DHT22;1662;49.310;8.134;2022-10-12T03:16:24;11.50;99.90
3300;DHT22;1662;49.310;8.134;2022-10-12T03:18:50;11.50;99.90
3300;DHT22;1662;49.310;8.134;2022-10-12T03:21:16;11.50;99.90
3300;DHT22;1662;49.310;8.134;2022-10-12T03:23:41;11.50;99.90
3300;DHT22;1662;49.310;8.134;2022-10-12T03:26:07;11.50;99.90
3300;DHT22;1662;49.310;8.134;2022-10-12T03:28:34;11.50;99.90
3300;DHT22;1662;49.310;8.134;2022-10-12T03:31:00;11.50;99.90
3300;DHT22;1662;49.310;8.134;2022-10-12T03:33:25;11.50;99.90
3300;DHT22;1662;49.310;8.134;2022-10-12T03:35:51;11.50;99.90
3300;DHT22;1662;49.310;8.134;2022-10-12T03:38:19;11.50;99.90
3300;DHT22;1662;49.310;8.134;2022-10-12T03:40:45;11.50;99.90
3300;DHT22;1662;49.310;8.134;2022-10-12T03:43:12;11.40;99.90
3300;DHT22;1662;49.310;8.134;2022-10-12T03:45:38;11.40;99.90
3300;DHT22;1662;49.310;8.134;2022-10-12T03:48:04;11.40;99.90
3300;DHT22;1662;49.310;8.134;2022-10-12T03:50:31;11.40;99.90
3300;DHT22;1662;49.310;8.134;2022-10-12T03:53:01;11.40;99.90
3300;DHT22;1662;49.310;8.134;2022-10-12T03:55:27;11.40;99.90
3300;DHT22;1662;49.310;8.134;2022-10-12T03:57:52;11.40;99.90
3300;DHT22;1662;49.310;8.134;2022-10-12T04:00:20;11.40;99.90
3300;DHT22;1662;49.310;8.134;2022-10-12T04:02:46;11.40;99.90
3300;DHT22;1662;49.310;8.134;2022-10-12T04:05:14;11.40;99.90
3300;DHT22;1662;49.310;8.134;2022-10-12T04:07:40;11.40;99.90
3300;DHT22;1662;49.310;8.134;2022-10-12T04:10:06;11.40;99.90
3300;DHT22;1662;49.310;8.134;2022-10-12T04:12:32;11.40;99.90
3300;DHT22;1662;49.310;8.134;2022-10-12T04:14:57;11.40;99.90
3300;DHT22;1662;49.310;8.134;2022-10-12T04:17:23;11.40;99.90
3300;DHT22;1662;49.310;8.134;2022-10-12T04:19:48;11.40;99.90
3300;DHT22;1662;49.310;8.134;2022-10-12T04:22:14;11.40;99.90
3300;DHT22;1662;49.310;8.134;2022-10-12T04:24:40;11.40;99.90
3300;DHT22;1662;49.310;8.134;2022-10-12T04:27:06;11.40;99.90
3300;DHT22;1662;49.310;8.134;2022-10-12T04:29:31;11.40;99.90
3300;DHT22;1662;49.310;8.134;2022-10-12T04:31:57;11.30;99.90
3300;DHT22;1662;49.310;8.134;2022-10-12T04:34:22;11.40;99.90
3300;DHT22;1662;49.310;8.134;2022-10-12T04:36:48;11.40;99.90
3300;DHT22;1662;49.310;8.134;2022-10-12T04:39:16;11.40;99.90
3300;DHT22;1662;49.310;8.134;2022-10-12T04:41:42;11.40;99.90
3300;DHT22;1662;49.310;8.134;2022-10-12T04:44:07;11.40;99.90
3300;DHT22;1662;49.310;8.134;2022-10-12T04:46:33;11.40;99.90
3300;DHT22;1662;49.310;8.134;2022-10-12T04:48:59;11.40;99.90
3300;DHT22;1662;49.310;8.134;2022-10-12T04:51:27;11.30;99.90
3300;DHT22;1662;49.310;8.134;2022-10-12T04:53:53;11.30;99.90
3300;DHT22;1662;49.310;8.134;2022-10-12T04:56:18;11.30;99.90
3300;DHT22;1662;49.310;8.134;2022-10-12T04:58:44;11.30;99.90
3300;DHT22;1662;49.310;8.134;2022-10-12T05:01:12;11.40;99.90
3300;DHT22;1662;49.310;8.134;2022-10-12T05:03:38;11.40;99.90
3300;DHT22;1662;49.310;8.134;2022-10-12T05:06:04;11.40;99.90
3300;DHT22;1662;49.310;8.134;2022-10-12T05:08:29;11.40;99.90
3300;DHT22;1662;49.310;8.134;2022-10-12T05:10:55;11.40;99.90
3300;DHT22;1662;49.310;8.134;2022-10-12T05:13:23;11.40;99.90
3300;DHT22;1662;49.310;8.134;2022-10-12T05:15:49;11.30;99.90
3300;DHT22;1662;49.310;8.134;2022-10-12T05:18:15;11.30;99.90
3300;DHT22;1662;49.310;8.134;2022-10-12T05:20:43;11.40;99.90
3300;DHT22;1662;49.310;8.134;2022-10-12T05:23:10;11.40;99.90
3300;DHT22;1662;49.310;8.134;2022-10-12T05:25:36;11.40;99.90
3300;DHT22;1662;49.310;8.134;2022-10-12T05:28:02;11.30;99.90
3300;DHT22;1662;49.310;8.134;2022-10-12T05:30:27;11.40;99.90
3300;DHT22;1662;49.310;8.134;2022-10-12T05:32:55;11.30;99.90
3300;DHT22;1662;49.310;8.134;2022-10-12T05:35:21;11.30;99.90
3300;DHT22;1662;49.310;8.134;2022-10-12T05:37:47;11.30;99.90
3300;DHT22;1662;49.310;8.134;2022-10-12T05:40:15;11.30;99.90
3300;DHT22;1662;49.310;8.134;2022-10-12T05:42:43;11.20;99.90
3300;DHT22;1662;49.310;8.134;2022-10-12T05:45:10;11.30;99.90
3300;DHT22;1662;49.310;8.134;2022-10-12T05:47:38;11.30;99.90
3300;DHT22;1662;49.310;8.134;2022-10-12T05:50:04;11.30;99.90
3300;DHT22;1662;49.310;8.134;2022-10-12T05:52:30;11.20;99.90
3300;DHT22;1662;49.310;8.134;2022-10-12T05:54:56;11.20;99.90
3300;DHT22;1662;49.310;8.134;2022-10-12T05:57:21;11.20;99.90
3300;DHT22;1662;49.310;8.134;2022-10-12T05:59:47;11.20;99.90
3300;DHT22;1662;49.310;8.134;2022-10-12T06:02:14;11.20;99.90
3300;DHT22;1662;49.310;8.134;2022-10-12T06:04:40;11.20;99.90
3300;DHT22;1662;49.310;8.134;2022-10-12T06:07:08;11.20;99.90
3300;DHT22;1662;49.310;8.134;2022-10-12T06:09:34;11.20;99.90
3300;DHT22;1662;49.310;8.134;2022-10-12T06:12:03;11.20;99.90
3300;DHT22;1662;49.310;8.134;2022-10-12T06:14:29;11.20;99.90
3300;DHT22;1662;49.310;8.134;2022-10-12T06:16:54;11.20;99.90
3300;DHT22;1662;49.310;8.134;2022-10-12T06:19:20;11.20;99.90
3300;DHT22;1662;49.310;8.134;2022-10-12T06:21:46;11.10;99.90
3300;DHT22;1662;49.310;8.134;2022-10-12T06:24:11;11.10;99.90
3300;DHT22;1662;49.310;8.134;2022-10-12T06:26:37;11.10;99.90
3300;DHT22;1662;49.310;8.134;2022-10-12T06:29:02;11.10;99.90
3300;DHT22;1662;49.310;8.134;2022-10-12T06:31:28;11.10;99.90
3300;DHT22;1662;49.310;8.134;2022-10-12T06:33:54;11.10;99.90
3300;DHT22;1662;49.310;8.134;2022-10-12T06:36:19;11.10;99.90
3300;DHT22;1662;49.310;8.134;2022-10-12T06:38:45;11.00;99.90
3300;DHT22;1662;49.310;8.134;2022-10-12T06:41:11;11.00;99.90
3300;DHT22;1662;49.310;8.134;2022-10-12T06:43:41;11.00;99.90
3300;DHT22;1662;49.310;8.134;2022-10-12T06:46:07;11.00;99.90
3300;DHT22;1662;49.310;8.134;2022-10-12T06:48:32;11.00;99.90
3300;DHT22;1662;49.310;8.134;2022-10-12T06:50:58;11.00;99.90
3300;DHT22;1662;49.310;8.134;2022-10-12T06:53:26;11.00;99.90
3300;DHT22;1662;49.310;8.134;2022-10-12T06:55:55;11.00;99.90
3300;DHT22;1662;49.310;8.134;2022-10-12T06:58:21;11.00;99.90
3300;DHT22;1662;49.310;8.134;2022-10-12T07:00:46;11.00;99.90
3300;DHT22;1662;49.310;8.134;2022-10-12T07:03:12;11.10;99.90
3300;DHT22;1662;49.310;8.134;2022-10-12T07:05:38;11.10;99.90
3300;DHT22;1662;49.310;8.134;2022-10-12T07:08:04;11.10;99.90
3300;DHT22;1662;49.310;8.134;2022-10-12T07:10:30;11.20;99.90
3300;DHT22;1662;49.310;8.134;2022-10-12T07:12:55;11.20;99.90
3300;DHT22;1662;49.310;8.134;2022-10-12T07:15:21;11.20;99.90
3300;DHT22;1662;49.310;8.134;2022-10-12T07:17:46;11.20;99.90
3300;DHT22;1662;49.310;8.134;2022-10-12T07:20:12;11.20;99.90
3300;DHT22;1662;49.310;8.134;2022-10-12T07:22:38;11.20;99.90
3300;DHT22;1662;49.310;8.134;2022-10-12T07:25:04;11.20;99.90
3300;DHT22;1662;49.310;8.134;2022-10-12T07:27:32;11.30;99.90
3300;DHT22;1662;49.310;8.134;2022-10-12T07:30:00;11.30;99.90
3300;DHT22;1662;49.310;8.134;2022-10-12T07:32:25;11.30;99.90
3300;DHT22;1662;49.310;8.134;2022-10-12T07:34:51;11.40;99.90
3300;DHT22;1662;49.310;8.134;2022-10-12T07:37:16;11.40;99.90
3300;DHT22;1662;49.310;8.134;2022-10-12T07:39:42;11.40;99.90
3300;DHT22;1662;49.310;8.134;2022-10-12T07:42:09;11.40;99.90
3300;DHT22;1662;49.310;8.134;2022-10-12T07:44:39;11.50;99.90
3300;DHT22;1662;49.310;8.134;2022-10-12T07:47:14;11.50;99.90
3300;DHT22;1662;49.310;8.134;2022-10-12T07:49:42;11.60;99.90
3300;DHT22;1662;49.310;8.134;2022-10-12T07:52:07;11.60;99.90
3300;DHT22;1662;49.310;8.134;2022-10-12T07:54:33;11.60;99.90
3300;DHT22;1662;49.310;8.134;2022-10-12T07:56:58;11.70;99.90
3300;DHT22;1662;49.310;8.134;2022-10-12T07:59:24;11.70;99.90
3300;DHT22;1662;49.310;8.134;2022-10-12T08:01:49;11.70;99.90
3300;DHT22;1662;49.310;8.134;2022-10-12T08:04:15;11.90;99.90
3300;DHT22;1662;49.310;8.134;2022-10-12T08:06:41;12.40;99.90
3300;DHT22;1662;49.310;8.134;2022-10-12T08:09:08;13.00;99.90
3300;DHT22;1662;49.310;8.134;2022-10-12T08:11:39;13.40;99.90
3300;DHT22;1662;49.310;8.134;2022-10-12T08:14:05;13.60;99.90
3300;DHT22;1662;49.310;8.134;2022-10-12T08:16:31;13.70;99.90
3300;DHT22;1662;49.310;8.134;2022-10-12T08:18:59;13.40;99.90
3300;DHT22;1662;49.310;8.134;2022-10-12T08:21:24;13.20;99.90
3300;DHT22;1662;49.310;8.134;2022-10-12T08:23:52;13.10;99.90
3300;DHT22;1662;49.310;8.134;2022-10-12T08:26:18;12.90;99.90
3300;DHT22;1662;49.310;8.134;2022-10-12T08:28:43;12.70;99.90
3300;DHT22;1662;49.310;8.134;2022-10-12T08:31:14;12.70;99.90
3300;DHT22;1662;49.310;8.134;2022-10-12T08:33:41;12.60;99.90
3300;DHT22;1662;49.310;8.134;2022-10-12T08:36:07;12.60;99.90
3300;DHT22;1662;49.310;8.134;2022-10-12T08:38:34;12.50;99.90
3300;DHT22;1662;49.310;8.134;2022-10-12T08:46:07;12.50;99.90
3300;DHT22;1662;49.310;8.134;2022-10-12T08:48:34;12.60;99.90
3300;DHT22;1662;49.310;8.134;2022-10-12T08:51:12;12.60;99.90
3300;DHT22;1662;49.310;8.134;2022-10-12T08:54:01;12.60;99.90
3300;DHT22;1662;49.310;8.134;2022-10-12T08:56:28;12.60;99.90
3300;DHT22;1662;49.310;8.134;2022-10-12T08:58:56;12.60;99.90
3300;DHT22;1662;49.310;8.134;2022-10-12T09:01:31;12.60;99.90
3300;DHT22;1662;49.310;8.134;2022-10-12T09:04:16;12.70;99.90
3300;DHT22;1662;49.310;8.134;2022-10-12T09:07:11;12.70;99.90
3300;DHT22;1662;49.310;8.134;2022-10-12T09:15:30;12.90;99.90
3300;DHT22;1662;49.310;8.134;2022-10-12T09:17:57;13.00;99.90
3300;DHT22;1662;49.310;8.134;2022-10-12T09:20:44;13.00;99.90
3300;DHT22;1662;49.310;8.134;2022-10-12T09:25:46;13.10;99.90
3300;DHT22;1662;49.310;8.134;2022-10-12T09:28:16;13.10;99.90
3300;DHT22;1662;49.310;8.134;2022-10-12T09:30:58;13.10;99.90
3300;DHT22;1662;49.310;8.134;2022-10-12T09:33:38;13.20;99.90
3300;DHT22;1662;49.310;8.134;2022-10-12T09:36:05;13.30;99.90
3300;DHT22;1662;49.310;8.134;2022-10-12T09:38:31;13.40;99.90
3300;DHT22;1662;49.310;8.134;2022-10-12T09:40:59;13.40;99.90
3300;DHT22;1662;49.310;8.134;2022-10-12T09:43:24;13.50;99.90
3300;DHT22;1662;49.310;8.134;2022-10-12T09:45:50;13.50;99.90
3300;DHT22;1662;49.310;8.134;2022-10-12T09:48:21;13.60;99.90
3300;DHT22;1662;49.310;8.134;2022-10-12T09:50:53;13.70;99.90
3300;DHT22;1662;49.310;8.134;2022-10-12T09:58:39;13.90;99.90
3300;DHT22;1662;49.310;8.134;2022-10-12T10:01:19;13.90;99.90
3300;DHT22;1662;49.310;8.134;2022-10-12T10:04:10;14.00;99.90
3300;DHT22;1662;49.310;8.134;2022-10-12T10:06:39;14.00;99.90
3300;DHT22;1662;49.310;8.134;2022-10-12T10:09:05;14.10;99.90
3300;DHT22;1662;49.310;8.134;2022-10-12T10:11:31;14.10;99.90
3300;DHT22;1662;49.310;8.134;2022-10-12T10:13:59;14.20;99.90
3300;DHT22;1662;49.310;8.134;2022-10-12T10:16:26;14.30;99.90
3300;DHT22;1662;49.310;8.134;2022-10-12T10:21:31;14.40;99.90
3300;DHT22;1662;49.310;8.134;2022-10-12T10:24:03;14.50;99.90
3300;DHT22;1662;49.310;8.134;2022-10-12T10:31:45;15.20;99.90
3300;DHT22;1662;49.310;8.134;2022-10-12T10:36:54;15.60;99.90
3300;DHT22;1662;49.310;8.134;2022-10-12T10:39:27;15.80;99.90
3300;DHT22;1662;49.310;8.134;2022-10-12T10:42:18;15.90;99.90
3300;DHT22;1662;49.310;8.134;2022-10-12T10:44:51;16.10;99.90
3300;DHT22;1662;49.310;8.134;2022-10-12T10:47:20;16.20;99.90
3300;DHT22;1662;49.310;8.134;2022-10-12T10:49:53;16.40;99.90
3300;DHT22;1662;49.310;8.134;2022-10-12T10:52:31;16.50;99.90
3300;DHT22;1662;49.310;8.134;2022-10-12T10:55:14;16.70;99.90
3300;DHT22;1662;49.310;8.134;2022-10-12T10:57:56;16.70;99.90
3300;DHT22;1662;49.310;8.134;2022-10-12T11:00:24;16.80;99.90
3300;DHT22;1662;49.310;8.134;2022-10-12T11:02:55;16.80;99.90
3300;DHT22;1662;49.310;8.134;2022-10-12T11:05:27;17.00;99.90
3300;DHT22;1662;49.310;8.134;2022-10-12T11:07:58;17.10;99.90
3300;DHT22;1662;49.310;8.134;2022-10-12T11:13:40;17.20;99.90
3300;DHT22;1662;49.310;8.134;2022-10-12T11:20:57;17.50;99.90
3300;DHT22;1662;49.310;8.134;2022-10-12T11:26:12;17.80;99.90
3300;DHT22;1662;49.310;8.134;2022-10-12T11:28:40;17.90;99.90
3300;DHT22;1662;49.310;8.134;2022-10-12T11:31:49;18.00;99.90
3300;DHT22;1662;49.310;8.134;2022-10-12T11:34:20;18.10;99.90
3300;DHT22;1662;49.310;8.134;2022-10-12T11:36:52;18.20;99.90
3300;DHT22;1662;49.310;8.134;2022-10-12T11:39:45;18.40;99.90
3300;DHT22;1662;49.310;8.134;2022-10-12T11:42:13;18.50;99.90
3300;DHT22;1662;49.310;8.134;2022-10-12T11:44:40;18.60;99.90
3300;DHT22;1662;49.310;8.134;2022-10-12T11:47:36;18.70;99.90
3300;DHT22;1662;49.310;8.134;2022-10-12T11:50:36;18.80;99.90
3300;DHT22;1662;49.310;8.134;2022-10-12T11:53:17;18.90;99.90
3300;DHT22;1662;49.310;8.134;2022-10-12T11:56:07;19.10;99.90
3300;DHT22;1662;49.310;8.134;2022-10-12T11:58:40;19.20;99.90
3300;DHT22;1662;49.310;8.134;2022-10-12T12:01:20;19.30;99.90
3300;DHT22;1662;49.310;8.134;2022-10-12T12:06:50;19.50;99.90
3300;DHT22;1662;49.310;8.134;2022-10-12T12:09:35;19.60;99.90
3300;DHT22;1662;49.310;8.134;2022-10-12T12:12:27;19.70;99.90
3300;DHT22;1662;49.310;8.134;2022-10-12T12:19:45;19.70;99.90
3300;DHT22;1662;49.310;8.134;2022-10-12T12:22:18;19.80;99.90
3300;DHT22;1662;49.310;8.134;2022-10-12T12:25:12;20.00;99.90
3300;DHT22;1662;49.310;8.134;2022-10-12T12:27:48;20.20;99.90
3300;DHT22;1662;49.310;8.134;2022-10-12T12:35:23;20.50;99.90
3300;DHT22;1662;49.310;8.134;2022-10-12T12:40:28;20.70;99.90
3300;DHT22;1662;49.310;8.134;2022-10-12T12:46:02;20.90;99.90
3300;DHT22;1662;49.310;8.134;2022-10-12T12:53:57;21.20;99.90
3300;DHT22;1662;49.310;8.134;2022-10-12T12:56:39;21.30;99.90
3300;DHT22;1662;49.310;8.134;2022-10-12T13:05:00;21.40;99.90
3300;DHT22;1662;49.310;8.134;2022-10-12T13:13:25;21.60;99.90
3300;DHT22;1662;49.310;8.134;2022-10-12T13:18:46;21.60;99.90
3300;DHT22;1662;49.310;8.134;2022-10-12T13:21:19;21.60;99.90
3300;DHT22;1662;49.310;8.134;2022-10-12T13:23:48;21.60;99.90
3300;DHT22;1662;49.310;8.134;2022-10-12T13:26:21;21.70;99.90
3300;DHT22;1662;49.310;8.134;2022-10-12T13:28:49;21.80;99.90
3300;DHT22;1662;49.310;8.134;2022-10-12T13:34:11;22.10;99.90
3300;DHT22;1662;49.310;8.134;2022-10-12T13:36:55;22.30;99.90
3300;DHT22;1662;49.310;8.134;2022-10-12T13:39:23;22.40;99.90
3300;DHT22;1662;49.310;8.134;2022-10-12T13:41:51;22.30;99.90
3300;DHT22;1662;49.310;8.134;2022-10-12T13:44:31;22.40;99.90
3300;DHT22;1662;49.310;8.134;2022-10-12T13:49:45;22.10;99.90
3300;DHT22;1662;49.310;8.134;2022-10-12T13:57:38;21.50;99.90
3300;DHT22;1662;49.310;8.134;2022-10-12T14:02:40;21.30;99.90
3300;DHT22;1662;49.310;8.134;2022-10-12T14:05:18;21.40;99.90
3300;DHT22;1662;49.310;8.134;2022-10-12T14:07:47;21.50;99.90
3300;DHT22;1662;49.310;8.134;2022-10-12T14:10:30;21.40;99.90
3300;DHT22;1662;49.310;8.134;2022-10-12T14:12:58;21.40;99.90
3300;DHT22;1662;49.310;8.134;2022-10-12T14:15:29;21.60;99.90
3300;DHT22;1662;49.310;8.134;2022-10-12T14:17:56;21.50;99.90
3300;DHT22;1662;49.310;8.134;2022-10-12T14:20:34;21.30;99.90
3300;DHT22;1662;49.310;8.134;2022-10-12T14:23:04;21.30;99.90
3300;DHT22;1662;49.310;8.134;2022-10-12T14:25:35;21.20;99.90
3300;DHT22;1662;49.310;8.134;2022-10-12T14:28:03;21.10;99.90
3300;DHT22;1662;49.310;8.134;2022-10-12T14:30:51;21.20;99.90
3300;DHT22;1662;49.310;8.134;2022-10-12T14:35:44;21.10;99.90
3300;DHT22;1662;49.310;8.134;2022-10-12T14:38:39;21.30;99.90
3300;DHT22;1662;49.310;8.134;2022-10-12T14:44:22;21.50;99.90
3300;DHT22;1662;49.310;8.134;2022-10-12T14:49:42;20.90;99.90
3300;DHT22;1662;49.310;8.134;2022-10-12T14:54:43;20.50;99.90
3300;DHT22;1662;49.310;8.134;2022-10-12T14:57:14;20.60;99.90
3300;DHT22;1662;49.310;8.134;2022-10-12T14:59:40;20.50;99.90
3300;DHT22;1662;49.310;8.134;2022-10-12T15:02:30;20.50;99.90
3300;DHT22;1662;49.310;8.134;2022-10-12T15:04:58;20.40;99.90
3300;DHT22;1662;49.310;8.134;2022-10-12T15:07:30;20.30;99.90
3300;DHT22;1662;49.310;8.134;2022-10-12T15:09:59;20.10;99.90
3300;DHT22;1662;49.310;8.134;2022-10-12T15:12:25;19.90;99.90
3300;DHT22;1662;49.310;8.134;2022-10-12T15:14:54;19.80;99.90
3300;DHT22;1662;49.310;8.134;2022-10-12T15:17:20;19.60;99.90
3300;DHT22;1662;49.310;8.134;2022-10-12T15:19:48;19.60;99.90
3300;DHT22;1662;49.310;8.134;2022-10-12T15:22:22;19.60;99.90
3300;DHT22;1662;49.310;8.134;2022-10-12T15:24:50;19.50;99.90
3300;DHT22;1662;49.310;8.134;2022-10-12T15:27:16;19.30;99.90
3300;DHT22;1662;49.310;8.134;2022-10-12T15:29:42;19.20;99.90
3300;DHT22;1662;49.310;8.134;2022-10-12T15:32:11;19.20;99.90
3300;DHT22;1662;49.310;8.134;2022-10-12T15:34:37;19.20;99.90
3300;DHT22;1662;49.310;8.134;2022-10-12T15:37:03;19.20;99.90
3300;DHT22;1662;49.310;8.134;2022-10-12T15:39:28;19.10;99.90
3300;DHT22;1662;49.310;8.134;2022-10-12T15:41:55;19.00;99.90
3300;DHT22;1662;49.310;8.134;2022-10-12T15:44:20;19.00;99.90
3300;DHT22;1662;49.310;8.134;2022-10-12T15:46:50;19.00;99.90
3300;DHT22;1662;49.310;8.134;2022-10-12T15:49:16;18.80;99.90
3300;DHT22;1662;49.310;8.134;2022-10-12T15:51:51;18.80;99.90
3300;DHT22;1662;49.310;8.134;2022-10-12T15:54:19;18.60;99.90
3300;DHT22;1662;49.310;8.134;2022-10-12T15:56:45;18.60;99.90
3300;DHT22;1662;49.310;8.134;2022-10-12T15:59:10;18.50;99.90
3300;DHT22;1662;49.310;8.134;2022-10-12T16:01:36;18.50;99.90
3300;DHT22;1662;49.310;8.134;2022-10-12T16:04:03;18.40;99.90
3300;DHT22;1662;49.310;8.134;2022-10-12T16:06:29;18.40;99.90
3300;DHT22;1662;49.310;8.134;2022-10-12T16:08:54;18.30;99.90
3300;DHT22;1662;49.310;8.134;2022-10-12T16:11:20;18.20;99.90
3300;DHT22;1662;49.310;8.134;2022-10-12T16:13:46;18.10;99.90
3300;DHT22;1662;49.310;8.134;2022-10-12T16:16:15;18.00;99.90
3300;DHT22;1662;49.310;8.134;2022-10-12T16:18:40;18.00;99.90
3300;DHT22;1662;49.310;8.134;2022-10-12T16:21:06;17.90;99.90
3300;DHT22;1662;49.310;8.134;2022-10-12T16:23:36;17.80;99.90
3300;DHT22;1662;49.310;8.134;2022-10-12T16:26:04;17.70;99.90
3300;DHT22;1662;49.310;8.134;2022-10-12T16:28:30;17.70;99.90
3300;DHT22;1662;49.310;8.134;2022-10-12T16:30:56;17.70;99.90
3300;DHT22;1662;49.310;8.134;2022-10-12T16:33:24;17.60;99.90
3300;DHT22;1662;49.310;8.134;2022-10-12T16:35:49;17.60;99.90
3300;DHT22;1662;49.310;8.134;2022-10-12T16:38:15;17.50;99.90
3300;DHT22;1662;49.310;8.134;2022-10-12T16:40:44;17.40;99.90
3300;DHT22;1662;49.310;8.134;2022-10-12T16:43:10;17.30;99.90
3300;DHT22;1662;49.310;8.134;2022-10-12T16:45:38;17.30;99.90
3300;DHT22;1662;49.310;8.134;2022-10-12T16:48:04;17.20;99.90
3300;DHT22;1662;49.310;8.134;2022-10-12T16:50:29;17.10;99.90
3300;DHT22;1662;49.310;8.134;2022-10-12T16:52:57;17.00;99.90
3300;DHT22;1662;49.310;8.134;2022-10-12T16:55:23;16.90;99.90
3300;DHT22;1662;49.310;8.134;2022-10-12T16:57:51;16.90;99.90
3300;DHT22;1662;49.310;8.134;2022-10-12T17:00:18;16.80;99.90
3300;DHT22;1662;49.310;8.134;2022-10-12T17:02:45;16.70;99.90
3300;DHT22;1662;49.310;8.134;2022-10-12T17:05:11;16.70;99.90
3300;DHT22;1662;49.310;8.134;2022-10-12T17:07:36;16.60;99.90
3300;DHT22;1662;49.310;8.134;2022-10-12T17:10:04;16.60;99.90
3300;DHT22;1662;49.310;8.134;2022-10-12T17:12:30;16.50;99.90
3300;DHT22;1662;49.310;8.134;2022-10-12T17:14:57;16.50;99.90
3300;DHT22;1662;49.310;8.134;2022-10-12T17:17:23;16.40;99.90
3300;DHT22;1662;49.310;8.134;2022-10-12T17:19:49;16.40;99.90
3300;DHT22;1662;49.310;8.134;2022-10-12T17:22:14;16.30;99.90
3300;DHT22;1662;49.310;8.134;2022-10-12T17:24:42;16.20;99.90
3300;DHT22;1662;49.310;8.134;2022-10-12T17:27:11;16.20;99.90
3300;DHT22;1662;49.310;8.134;2022-10-12T17:29:38;16.10;99.90
3300;DHT22;1662;49.310;8.134;2022-10-12T17:32:05;16.00;99.90
3300;DHT22;1662;49.310;8.134;2022-10-12T17:34:36;16.00;99.90
3300;DHT22;1662;49.310;8.134;2022-10-12T17:37:05;15.90;99.90
3300;DHT22;1662;49.310;8.134;2022-10-12T17:39:35;15.90;99.90
3300;DHT22;1662;49.310;8.134;2022-10-12T17:42:01;15.80;99.90
3300;DHT22;1662;49.310;8.134;2022-10-12T17:44:26;15.80;99.90
3300;DHT22;1662;49.310;8.134;2022-10-12T17:46:52;15.80;99.90
3300;DHT22;1662;49.310;8.134;2022-10-12T17:49:19;15.80;99.90
3300;DHT22;1662;49.310;8.134;2022-10-12T17:51:45;15.70;99.90
3300;DHT22;1662;49.310;8.134;2022-10-12T17:54:16;15.70;99.90
3300;DHT22;1662;49.310;8.134;2022-10-12T17:56:42;15.70;99.90
3300;DHT22;1662;49.310;8.134;2022-10-12T17:59:12;15.60;99.90
3300;DHT22;1662;49.310;8.134;2022-10-12T18:01:38;15.60;99.90
3300;DHT22;1662;49.310;8.134;2022-10-12T18:04:04;15.60;99.90
3300;DHT22;1662;49.310;8.134;2022-10-12T18:06:33;15.50;99.90
3300;DHT22;1662;49.310;8.134;2022-10-12T18:09:00;15.50;99.90
3300;DHT22;1662;49.310;8.134;2022-10-12T18:11:27;15.40;99.90
3300;DHT22;1662;49.310;8.134;2022-10-12T18:13:55;15.40;99.90
3300;DHT22;1662;49.310;8.134;2022-10-12T18:16:26;15.40;99.90
3300;DHT22;1662;49.310;8.134;2022-10-12T18:18:52;15.30;99.90
3300;DHT22;1662;49.310;8.134;2022-10-12T18:21:24;15.30;99.90